Terminal Aerodrome Forecast
Issued by NWS

Home | Current Version | Previous Version | Text Only | Print | Product List | Glossary On
Versions: 1 2 3 4 5 6 7 8 9 10 11 12 13 14
000
FTUS43 KICT 242336
TAFRSL
TAF
KRSL 242336Z 2500/2524 VRB05KT P6SM FEW250
     FM250300 17010KT P6SM FEW250
     FM251400 18015G25KT P6SM BKN250=

USA.gov is the U.S. government's official web portal to all federal, state and local government web resources and services.